createdAt,value
2019-05-25T00:01:26.836Z,3.50
2019-05-25T00:03:56.424Z,3.00
2019-05-25T00:06:26.277Z,2.60
2019-05-25T00:08:55.404Z,3.05
2019-05-25T00:11:24.715Z,2.90
2019-05-25T00:13:53.987Z,2.80
2019-05-25T00:16:23.023Z,2.87
2019-05-25T00:18:52.078Z,3.25
2019-05-25T00:21:21.302Z,3.37
2019-05-25T00:23:50.386Z,2.80
2019-05-25T00:26:19.479Z,3.12
2019-05-25T00:28:48.608Z,3.00
2019-05-25T00:31:17.709Z,3.47
2019-05-25T00:33:46.958Z,3.10
2019-05-25T00:36:17.059Z,3.17
2019-05-25T00:38:46.123Z,3.42
2019-05-25T00:41:15.376Z,3.03
2019-05-25T00:43:44.464Z,3.50
2019-05-25T00:46:13.511Z,3.13
2019-05-25T00:48:42.528Z,2.90
2019-05-25T00:51:11.635Z,3.33
2019-05-25T00:53:40.694Z,3.30
2019-05-25T00:56:10.442Z,3.02
2019-05-25T00:58:39.536Z,2.92
2019-05-25T01:01:08.534Z,2.80
2019-05-25T01:03:37.788Z,3.13
2019-05-25T01:06:06.991Z,3.70
2019-05-25T01:08:36.078Z,3.17
2019-05-25T01:11:05.163Z,3.52
2019-05-25T01:13:34.334Z,3.33
2019-05-25T01:16:03.395Z,3.60
2019-05-25T01:18:32.461Z,3.50
2019-05-25T01:21:01.655Z,3.02
2019-05-25T01:23:30.822Z,3.40
2019-05-25T01:26:00.006Z,3.63
2019-05-25T01:28:29.295Z,3.30
2019-05-25T01:30:58.379Z,3.30
2019-05-25T01:33:27.371Z,3.20
2019-05-25T01:35:56.596Z,3.47
2019-05-25T01:38:25.763Z,3.40
2019-05-25T01:40:54.807Z,3.52
2019-05-25T01:43:23.950Z,3.33
2019-05-25T01:45:53.006Z,3.40
2019-05-25T01:48:22.229Z,3.90
2019-05-25T01:50:51.593Z,3.57
2019-05-25T01:53:20.535Z,3.27
2019-05-25T01:55:49.698Z,3.37
2019-05-25T01:58:18.752Z,3.22
2019-05-25T02:00:47.765Z,3.33
2019-05-25T02:03:16.986Z,3.50
2019-05-25T02:05:46.148Z,3.95
2019-05-25T02:08:15.323Z,3.67
2019-05-25T02:10:44.424Z,3.63
2019-05-25T02:13:13.548Z,3.58
2019-05-25T02:15:42.675Z,3.73
2019-05-25T02:18:11.755Z,3.50
2019-05-25T02:20:40.927Z,3.40
2019-05-25T02:23:10.048Z,3.60
2019-05-25T02:25:39.243Z,3.70
2019-05-25T02:28:08.439Z,3.47
2019-05-25T02:30:37.630Z,3.00
2019-05-25T02:33:06.850Z,3.17
2019-05-25T02:35:36.008Z,3.05
2019-05-25T02:38:05.319Z,3.57
2019-05-25T02:40:34.644Z,3.45
2019-05-25T02:43:04.327Z,3.30
2019-05-25T02:45:33.760Z,3.20
2019-05-25T02:48:02.877Z,3.53
2019-05-25T02:50:32.263Z,3.30
2019-05-25T02:53:01.471Z,3.13
2019-05-25T02:55:34.799Z,2.87
2019-05-25T02:58:01.484Z,3.47
2019-05-25T03:00:32.858Z,3.17
2019-05-25T03:03:03.228Z,3.45
2019-05-25T03:05:32.634Z,2.80
2019-05-25T03:08:02.648Z,3.33
2019-05-25T03:10:32.292Z,3.63
2019-05-25T03:13:03.819Z,2.95
2019-05-25T03:15:33.023Z,3.50
2019-05-25T03:18:02.099Z,3.50
2019-05-25T03:20:31.315Z,3.27
2019-05-25T03:23:00.891Z,3.50
2019-05-25T03:25:29.986Z,3.40
2019-05-25T03:27:58.968Z,3.58
2019-05-25T03:30:34.013Z,3.47
2019-05-25T03:33:03.299Z,3.73
2019-05-25T03:35:32.352Z,4.03
2019-05-25T03:38:01.535Z,3.75
2019-05-25T03:40:30.700Z,3.70
2019-05-25T03:42:59.807Z,3.27
2019-05-25T03:45:29.033Z,3.30
2019-05-25T03:47:58.137Z,3.20
2019-05-25T03:50:27.212Z,3.00
2019-05-25T03:52:56.350Z,3.63
2019-05-25T03:55:25.416Z,3.20
2019-05-25T03:57:54.563Z,3.33
2019-05-25T04:00:33.052Z,3.77
2019-05-25T04:03:02.188Z,3.30
2019-05-25T04:05:31.383Z,3.30
2019-05-25T04:08:00.484Z,3.55
2019-05-25T04:10:29.620Z,4.00
2019-05-25T04:12:58.692Z,3.57
2019-05-25T04:15:27.948Z,3.40
2019-05-25T04:17:56.958Z,3.72
2019-05-25T04:20:26.027Z,3.53
2019-05-25T04:22:55.114Z,3.37
2019-05-25T04:25:24.208Z,3.50
2019-05-25T04:27:53.197Z,3.83
2019-05-25T04:30:22.347Z,3.70
2019-05-25T04:32:51.735Z,3.50
2019-05-25T04:35:20.791Z,3.47
2019-05-25T04:37:49.887Z,3.77
2019-05-25T04:40:19.033Z,3.50
2019-05-25T04:42:48.241Z,3.77
2019-05-25T04:45:17.989Z,3.50
2019-05-25T04:47:47.084Z,3.62
2019-05-25T04:50:16.151Z,3.43
2019-05-25T04:52:45.252Z,3.95
2019-05-25T04:55:14.856Z,3.67
2019-05-25T04:57:43.949Z,3.77
2019-05-25T05:00:13.354Z,3.73
2019-05-25T05:02:42.408Z,3.50
2019-05-25T05:05:11.905Z,3.77
2019-05-25T05:07:41.072Z,4.13
2019-05-25T05:10:10.486Z,4.23
2019-05-25T05:12:39.570Z,3.65
2019-05-25T05:15:08.798Z,3.67
2019-05-25T05:17:37.951Z,3.90
2019-05-25T05:20:08.203Z,3.60
2019-05-25T05:22:37.404Z,4.13
2019-05-25T05:25:09.585Z,3.80
2019-05-25T05:27:39.686Z,3.83
2019-05-25T05:30:09.643Z,4.70
2019-05-25T05:32:38.769Z,5.17
2019-05-25T05:35:08.406Z,4.10
2019-05-25T05:37:37.591Z,3.53
2019-05-25T05:40:08.155Z,3.63
2019-05-25T05:42:39.554Z,3.90
2019-05-25T05:45:09.539Z,3.70
2019-05-25T05:47:41.010Z,6.80
2019-05-25T05:50:11.828Z,3.90
2019-05-25T05:52:40.970Z,3.70
2019-05-25T05:55:11.451Z,3.23
2019-05-25T05:57:40.693Z,3.90
2019-05-25T06:00:10.944Z,2.70
2019-05-25T06:02:40.039Z,3.33
2019-05-25T06:05:09.215Z,2.97
2019-05-25T06:07:38.645Z,2.77
2019-05-25T06:10:09.218Z,2.83
2019-05-25T06:12:38.316Z,2.77
2019-05-25T06:15:07.793Z,2.72
2019-05-25T06:17:36.936Z,2.43
2019-05-25T06:20:06.970Z,2.47
2019-05-25T06:22:36.068Z,2.53
2019-05-25T06:25:05.691Z,2.65
2019-05-25T06:27:34.853Z,2.42
2019-05-25T06:30:04.916Z,1.80
2019-05-25T06:32:34.060Z,3.00
2019-05-25T06:35:03.228Z,2.77
2019-05-25T06:37:32.391Z,2.10
2019-05-25T06:40:02.109Z,2.40
2019-05-25T06:42:31.217Z,2.15
2019-05-25T06:45:00.341Z,1.77
2019-05-25T06:47:29.464Z,2.30
2019-05-25T06:49:58.529Z,2.70
2019-05-25T06:52:27.654Z,2.20
2019-05-25T06:54:56.591Z,2.37
2019-05-25T06:57:25.668Z,2.63
2019-05-25T06:59:54.779Z,2.30
2019-05-25T07:02:23.870Z,2.37
2019-05-25T07:04:52.939Z,2.27
2019-05-25T07:07:22.054Z,2.30
2019-05-25T07:09:51.237Z,2.07
2019-05-25T07:12:21.980Z,2.03
2019-05-25T07:14:51.093Z,2.40
2019-05-25T07:17:20.298Z,2.43
2019-05-25T07:19:49.399Z,2.40
2019-05-25T07:22:18.876Z,2.30
2019-05-25T07:24:47.991Z,2.10
2019-05-25T07:27:17.137Z,2.30
2019-05-25T07:29:46.240Z,2.50
2019-05-25T07:32:15.325Z,1.85
2019-05-25T07:34:44.430Z,2.40
2019-05-25T07:37:13.506Z,1.90
2019-05-25T07:39:42.767Z,1.57
2019-05-25T07:42:11.972Z,1.87
2019-05-25T07:44:41.043Z,1.70
2019-05-25T07:47:10.126Z,1.60
2019-05-25T07:49:39.227Z,1.93
2019-05-25T07:52:08.379Z,1.60
2019-05-25T07:54:37.473Z,1.50
2019-05-25T07:57:06.635Z,1.50
2019-05-25T07:59:35.743Z,1.52
2019-05-25T08:02:04.865Z,1.30
2019-05-25T08:04:33.926Z,1.50
2019-05-25T08:07:03.198Z,1.20
2019-05-25T08:09:32.410Z,1.27
2019-05-25T08:12:01.698Z,1.55
2019-05-25T08:14:30.847Z,1.53
2019-05-25T08:16:59.986Z,1.00
2019-05-25T08:19:29.119Z,1.32
2019-05-25T08:21:58.366Z,1.00
2019-05-25T08:24:27.496Z,1.32
2019-05-25T08:26:56.672Z,1.77
2019-05-25T08:29:25.814Z,1.80
2019-05-25T08:31:54.978Z,1.70
2019-05-25T08:34:24.103Z,2.23
2019-05-25T08:36:53.265Z,2.40
2019-05-25T08:39:22.370Z,2.17
2019-05-25T08:41:51.626Z,1.40
2019-05-25T08:44:21.110Z,1.65
2019-05-25T08:46:50.314Z,1.70
2019-05-25T08:49:19.347Z,1.60
2019-05-25T08:51:48.503Z,1.63
2019-05-25T08:54:17.582Z,1.30
2019-05-25T08:56:46.722Z,1.80
2019-05-25T08:59:15.803Z,1.82
2019-05-25T09:01:44.888Z,1.37
2019-05-25T09:04:14.090Z,1.65
2019-05-25T09:06:43.155Z,1.50
2019-05-25T09:09:12.292Z,1.62
2019-05-25T09:11:41.831Z,1.37
2019-05-25T09:14:10.932Z,1.47
2019-05-25T09:16:40.490Z,1.20
2019-05-25T09:19:09.583Z,1.20
2019-05-25T09:21:38.730Z,1.22
2019-05-25T09:24:07.904Z,1.60
2019-05-25T09:26:37.022Z,1.72
2019-05-25T09:29:06.171Z,1.30
2019-05-25T09:31:35.266Z,1.22
2019-05-25T09:34:04.418Z,1.47
2019-05-25T09:36:33.498Z,1.57
2019-05-25T09:39:02.584Z,1.10
2019-05-25T09:41:31.628Z,1.42
2019-05-25T09:44:00.624Z,1.80
2019-05-25T09:46:29.717Z,1.57
2019-05-25T09:48:58.848Z,1.85
2019-05-25T09:51:27.968Z,1.80
2019-05-25T09:53:57.063Z,1.52
2019-05-25T09:56:26.325Z,1.72
2019-05-25T09:58:55.772Z,1.50
2019-05-25T10:01:24.779Z,1.77
2019-05-25T10:03:56.618Z,1.35
2019-05-25T10:06:24.839Z,1.60
2019-05-25T10:08:57.384Z,1.50
2019-05-25T10:11:26.608Z,1.40
2019-05-25T10:13:55.855Z,1.60
2019-05-25T10:16:25.004Z,1.47
2019-05-25T10:18:54.131Z,1.45
2019-05-25T10:21:23.124Z,1.70
2019-05-25T10:23:52.151Z,1.52
2019-05-25T10:26:23.119Z,1.20
2019-05-25T10:28:52.247Z,1.60
2019-05-25T10:31:21.378Z,1.55
2019-05-25T10:33:50.419Z,1.75
2019-05-25T10:36:19.488Z,1.85
2019-05-25T10:38:48.649Z,1.92
2019-05-25T10:41:17.739Z,1.45
2019-05-25T10:43:46.800Z,2.10
2019-05-25T10:46:15.819Z,1.70
2019-05-25T10:48:44.947Z,1.62
2019-05-25T10:51:14.236Z,1.40
2019-05-25T10:53:43.383Z,1.45
2019-05-25T10:56:12.509Z,1.00
2019-05-25T10:58:41.599Z,1.27
2019-05-25T11:01:10.671Z,1.10
2019-05-25T11:03:39.873Z,1.30
2019-05-25T11:06:08.935Z,1.80
2019-05-25T11:08:38.022Z,1.52
2019-05-25T11:11:07.120Z,1.25
2019-05-25T11:13:36.290Z,1.72
2019-05-25T11:16:05.376Z,1.90
2019-05-25T11:18:34.610Z,1.30
2019-05-25T11:21:03.691Z,1.75
2019-05-25T11:23:32.870Z,2.10
2019-05-25T11:26:01.954Z,2.10
2019-05-25T11:28:31.023Z,1.90
2019-05-25T11:31:00.151Z,2.10
2019-05-25T11:33:29.126Z,1.87
2019-05-25T11:35:58.261Z,2.52
2019-05-25T11:38:27.414Z,2.12
2019-05-25T11:40:56.565Z,1.65
2019-05-25T11:43:25.640Z,2.35
2019-05-25T11:45:54.763Z,2.00
2019-05-25T11:48:23.813Z,2.12
2019-05-25T11:50:53.028Z,1.87
2019-05-25T11:53:22.147Z,2.12
2019-05-25T11:55:51.289Z,2.05
2019-05-25T11:58:20.459Z,2.15
2019-05-25T12:00:51.749Z,2.42
2019-05-25T12:03:21.059Z,2.20
2019-05-25T12:05:50.153Z,1.98
2019-05-25T12:08:19.250Z,1.92
2019-05-25T12:10:48.359Z,2.30
2019-05-25T12:13:17.361Z,1.92
2019-05-25T12:15:46.453Z,2.40
2019-05-25T12:18:15.613Z,2.55
2019-05-25T12:20:55.233Z,2.95
2019-05-25T12:23:24.346Z,1.77
2019-05-25T12:25:53.467Z,2.08
2019-05-25T12:28:22.661Z,2.08
2019-05-25T12:30:51.794Z,1.98
2019-05-25T12:33:21.047Z,2.20
2019-05-25T12:36:09.464Z,2.92
2019-05-25T12:38:38.645Z,2.90
2019-05-25T12:41:08.316Z,2.10
2019-05-25T12:43:37.449Z,2.37
2019-05-25T12:46:06.526Z,2.30
2019-05-25T12:48:35.643Z,2.27
2019-05-25T12:51:04.712Z,2.17
2019-05-25T12:53:33.785Z,2.83
2019-05-25T12:56:02.963Z,2.92
2019-05-25T12:58:31.952Z,2.95
2019-05-25T13:01:00.954Z,2.30
2019-05-25T13:03:30.066Z,2.90
2019-05-25T13:05:59.381Z,2.33
2019-05-25T13:08:28.482Z,2.17
2019-05-25T13:10:57.611Z,2.12
2019-05-25T13:13:26.688Z,1.30
2019-05-25T13:15:55.809Z,1.80
2019-05-25T13:18:25.042Z,1.90
2019-05-25T13:20:54.178Z,1.50
2019-05-25T13:23:23.336Z,1.75
2019-05-25T13:25:52.536Z,1.20
2019-05-25T13:28:21.771Z,1.47
2019-05-25T13:30:50.840Z,1.67
2019-05-25T13:33:19.937Z,1.60
2019-05-25T13:35:49.034Z,1.55
2019-05-25T13:38:18.335Z,1.40
2019-05-25T13:40:47.528Z,1.52
2019-05-25T13:43:16.660Z,1.50
2019-05-25T13:45:46.158Z,1.40
2019-05-25T13:48:15.753Z,1.42
2019-05-25T13:50:45.388Z,1.75
2019-05-25T13:53:14.531Z,1.42
2019-05-25T13:55:43.657Z,1.75
2019-05-25T13:58:12.768Z,1.30
2019-05-25T14:00:41.876Z,1.45
2019-05-25T14:03:10.983Z,1.40
2019-05-25T14:05:39.960Z,2.02
2019-05-25T14:08:09.186Z,1.80
2019-05-25T14:10:38.350Z,1.50
2019-05-25T14:13:07.607Z,1.65
2019-05-25T14:15:36.758Z,2.00
2019-05-25T14:18:05.961Z,2.02
2019-05-25T14:20:35.095Z,1.80
2019-05-25T14:23:04.529Z,1.75
2019-05-25T14:25:33.730Z,1.85
2019-05-25T14:28:02.813Z,2.10
2019-05-25T14:30:31.927Z,1.32
2019-05-25T14:33:01.019Z,1.95
2019-05-25T14:35:30.115Z,2.37
2019-05-25T14:37:59.237Z,2.17
2019-05-25T14:40:28.369Z,2.05
2019-05-25T14:42:57.445Z,1.95
2019-05-25T14:45:26.738Z,2.47
2019-05-25T14:47:55.841Z,2.37
2019-05-25T14:50:24.996Z,2.00
2019-05-25T14:52:54.096Z,2.52
2019-05-25T14:55:23.209Z,1.72
2019-05-25T14:57:52.282Z,2.05
2019-05-25T15:00:21.998Z,1.98
2019-05-25T15:02:51.374Z,1.82
2019-05-25T15:05:20.674Z,1.80
2019-05-25T15:07:49.856Z,2.08
2019-05-25T15:10:19.005Z,1.60
2019-05-25T15:12:48.139Z,1.95
2019-05-25T15:15:17.442Z,1.27
2019-05-25T15:17:46.431Z,3.00
2019-05-25T15:20:17.103Z,2.12
2019-05-25T15:22:47.156Z,2.10
2019-05-25T15:25:16.719Z,2.72
2019-05-25T15:27:46.935Z,2.52
2019-05-25T15:30:18.337Z,2.10
2019-05-25T15:32:48.064Z,2.42
2019-05-25T15:35:20.186Z,2.70
2019-05-25T15:37:48.236Z,3.00
2019-05-25T15:40:18.726Z,2.58
2019-05-25T15:42:47.973Z,2.72
2019-05-25T15:45:20.404Z,2.15
2019-05-25T15:47:50.384Z,2.15
2019-05-25T15:50:21.451Z,2.20
2019-05-25T15:52:51.090Z,2.70
2019-05-25T15:55:20.228Z,2.40
2019-05-25T15:57:49.360Z,2.47
2019-05-25T16:00:20.860Z,2.17
2019-05-25T16:02:49.972Z,1.77
2019-05-25T16:05:20.481Z,2.45
2019-05-25T16:07:51.959Z,1.72
2019-05-25T16:10:32.473Z,2.20
2019-05-25T16:13:02.104Z,1.80
2019-05-25T16:15:31.292Z,2.15
2019-05-25T16:18:00.438Z,2.17
2019-05-25T16:20:29.705Z,2.47
2019-05-25T16:22:58.951Z,2.65
2019-05-25T16:25:28.619Z,2.20
2019-05-25T16:27:57.778Z,2.30
2019-05-25T16:30:30.672Z,2.10
2019-05-25T16:33:11.782Z,1.90
2019-05-25T16:35:32.024Z,2.30
2019-05-25T16:38:01.348Z,2.12
2019-05-25T16:40:30.667Z,2.05
2019-05-25T16:43:00.088Z,2.05
2019-05-25T16:45:29.599Z,1.70
2019-05-25T16:47:58.768Z,2.25
2019-05-25T16:50:27.798Z,1.90
2019-05-25T16:52:57.009Z,2.35
2019-05-25T16:55:27.056Z,1.80
2019-05-25T16:57:56.385Z,2.05
2019-05-25T17:00:29.092Z,1.82
2019-05-25T17:02:59.375Z,2.22
2019-05-25T17:05:29.181Z,1.70
2019-05-25T17:07:58.790Z,2.00
2019-05-25T17:10:28.057Z,1.30
2019-05-25T17:12:57.306Z,1.80
2019-05-25T17:15:26.425Z,2.00
2019-05-25T17:17:55.918Z,1.80
2019-05-25T17:20:25.426Z,1.70
2019-05-25T17:22:54.793Z,1.72
2019-05-25T17:25:24.020Z,2.00
2019-05-25T17:27:53.106Z,1.50
2019-05-25T17:30:40.738Z,1.60
2019-05-25T17:33:09.840Z,1.70
2019-05-25T17:35:39.095Z,1.90
2019-05-25T17:38:27.360Z,1.80
2019-05-25T17:40:57.607Z,1.67
2019-05-25T17:43:26.816Z,1.55
2019-05-25T17:45:55.995Z,2.12
2019-05-25T17:48:25.144Z,1.67
2019-05-25T17:50:54.166Z,1.95
2019-05-25T17:53:23.336Z,1.85
2019-05-25T17:55:52.431Z,1.60
2019-05-25T17:58:21.552Z,2.10
2019-05-25T18:00:51.085Z,1.82
2019-05-25T18:03:20.574Z,1.60
2019-05-25T18:05:49.781Z,1.70
2019-05-25T18:08:18.940Z,1.77
2019-05-25T18:10:53.128Z,1.65
2019-05-25T18:13:18.986Z,1.77
2019-05-25T18:15:48.119Z,1.30
2019-05-25T18:18:17.401Z,1.90
2019-05-25T18:20:46.699Z,1.62
2019-05-25T18:23:15.880Z,1.62
2019-05-25T18:25:44.962Z,1.70
2019-05-25T18:28:14.338Z,1.75
2019-05-25T18:30:43.522Z,2.15
2019-05-25T18:33:12.923Z,2.02
2019-05-25T18:35:42.034Z,1.80
2019-05-25T18:38:11.028Z,1.57
2019-05-25T18:40:40.140Z,1.75
2019-05-25T18:43:09.423Z,1.95
2019-05-25T18:45:38.511Z,2.00
2019-05-25T18:48:07.597Z,1.70
2019-05-25T18:50:36.792Z,1.50
2019-05-25T18:53:06.060Z,1.80
2019-05-25T18:55:35.119Z,1.98
2019-05-25T18:58:04.671Z,1.55
2019-05-25T19:00:33.863Z,1.85
2019-05-25T19:03:03.004Z,2.40
2019-05-25T19:05:32.213Z,1.75
2019-05-25T19:08:01.438Z,2.10
2019-05-25T19:10:30.558Z,2.35
2019-05-25T19:12:59.751Z,1.85
2019-05-25T19:15:28.955Z,1.47
2019-05-25T19:17:58.031Z,2.10
2019-05-25T19:20:27.151Z,1.62
2019-05-25T19:22:56.242Z,1.50
2019-05-25T19:25:25.361Z,2.00
2019-05-25T19:27:54.529Z,1.85
2019-05-25T19:30:23.972Z,1.98
2019-05-25T19:32:53.067Z,2.00
2019-05-25T19:35:22.171Z,1.87
2019-05-25T19:37:51.328Z,2.30
2019-05-25T19:40:21.126Z,1.70
2019-05-25T19:42:50.513Z,1.45
2019-05-25T19:45:20.734Z,1.85
2019-05-25T19:47:49.860Z,1.85
2019-05-25T19:50:19.856Z,1.80
2019-05-25T19:52:49.033Z,1.92
2019-05-25T19:55:18.107Z,1.90
2019-05-25T19:57:47.188Z,2.40
2019-05-25T20:00:16.770Z,2.27
2019-05-25T20:02:45.872Z,2.17
2019-05-25T20:05:17.566Z,2.02
2019-05-25T20:07:47.028Z,2.20
2019-05-25T20:10:16.769Z,2.27
2019-05-25T20:12:45.927Z,2.27
2019-05-25T20:15:16.102Z,2.52
2019-05-25T20:17:45.253Z,2.62
2019-05-25T20:20:15.223Z,2.12
2019-05-25T20:22:44.359Z,2.12
2019-05-25T20:25:13.741Z,2.55
2019-05-25T20:27:42.894Z,2.45
2019-05-25T20:30:12.615Z,2.45
2019-05-25T20:32:41.683Z,2.35
2019-05-25T20:35:10.899Z,2.70
2019-05-25T20:37:40.012Z,1.85
2019-05-25T20:40:09.909Z,2.60
2019-05-25T20:42:39.667Z,2.40
2019-05-25T20:45:09.879Z,2.30
2019-05-25T20:47:38.996Z,2.65
2019-05-25T20:50:09.174Z,2.70
2019-05-25T20:52:38.384Z,3.20
2019-05-25T20:55:08.097Z,3.12
2019-05-25T20:57:37.275Z,3.05
2019-05-25T21:00:07.196Z,3.50
2019-05-25T21:02:36.739Z,3.27
2019-05-25T21:05:06.147Z,3.12
2019-05-25T21:07:35.304Z,3.52
2019-05-25T21:10:05.135Z,3.33
2019-05-25T21:12:53.422Z,3.42
2019-05-25T21:15:22.655Z,3.58
2019-05-25T21:17:51.823Z,5.35
2019-05-25T21:20:21.447Z,4.37
2019-05-25T21:22:50.660Z,4.90
2019-05-25T21:25:20.137Z,6.40
2019-05-25T21:27:49.333Z,5.87
2019-05-25T21:30:19.417Z,4.05
2019-05-25T21:32:48.815Z,4.15
2019-05-25T21:35:18.976Z,3.72
2019-05-25T21:37:48.172Z,3.90
2019-05-25T21:40:17.676Z,3.90
2019-05-25T21:42:46.896Z,3.90
2019-05-25T21:45:16.063Z,4.28
2019-05-25T21:47:45.311Z,4.33
2019-05-25T21:50:16.416Z,4.45
2019-05-25T21:52:45.525Z,3.70
2019-05-25T21:55:14.875Z,3.87
2019-05-25T21:57:44.507Z,4.05
2019-05-25T22:00:18.841Z,4.47
2019-05-25T22:02:48.507Z,4.58
2019-05-25T22:05:19.270Z,3.33
2019-05-25T22:07:48.520Z,3.83
2019-05-25T22:10:17.990Z,3.92
2019-05-25T22:12:54.666Z,4.25
2019-05-25T22:15:25.280Z,3.95
2019-05-25T22:17:54.640Z,3.65
2019-05-25T22:20:23.767Z,3.67
2019-05-25T22:22:53.016Z,3.27
2019-05-25T22:25:22.531Z,3.42
2019-05-25T22:27:52.215Z,3.40
2019-05-25T22:30:22.947Z,4.17
2019-05-25T22:32:52.166Z,3.47
2019-05-25T22:35:21.361Z,3.40
2019-05-25T22:37:50.515Z,4.05
2019-05-25T22:40:19.715Z,3.55
2019-05-25T22:42:48.804Z,3.50
2019-05-25T22:45:18.143Z,3.87
2019-05-25T22:47:47.659Z,3.85
2019-05-25T22:50:17.061Z,4.17
2019-05-25T22:52:46.386Z,4.15
2019-05-25T22:55:15.519Z,4.30
2019-05-25T22:57:45.958Z,4.00
2019-05-25T23:00:16.494Z,5.33
2019-05-25T23:02:45.487Z,4.80
2019-05-25T23:05:14.818Z,4.35
2019-05-25T23:07:43.821Z,4.15
2019-05-25T23:10:12.842Z,4.05
2019-05-25T23:12:41.921Z,4.00
2019-05-25T23:15:11.308Z,4.12
2019-05-25T23:17:40.436Z,4.60
2019-05-25T23:20:09.912Z,4.80
2019-05-25T23:22:38.901Z,4.20
2019-05-25T23:25:08.607Z,5.28
2019-05-25T23:27:37.597Z,5.83
2019-05-25T23:30:07.725Z,5.17
2019-05-25T23:32:36.755Z,5.10
2019-05-25T23:35:05.920Z,4.83
2019-05-25T23:37:35.041Z,5.20
2019-05-25T23:40:04.886Z,4.30
2019-05-25T23:42:33.968Z,5.08
2019-05-25T23:45:03.187Z,5.00
2019-05-25T23:47:32.495Z,5.03
2019-05-25T23:50:01.645Z,4.95
2019-05-25T23:52:30.924Z,5.08
2019-05-25T23:55:00.042Z,5.67
2019-05-25T23:57:29.124Z,5.62
